Time;durP1;ratioP1;P1;durP2;ratioP2;P2;SDS_P1;SDS_P2;PMS_P1;PMS_P2;Temp;Humidity;BMP_temperature;BMP_pressure;BME280_temperature;BME280_humidity;BME280_pressure;Samples;Min_cycle;Max_cycle;Signal;HPM_P1;HPM_P2
2023/09/23 00:00:55;;;;;;;0.83;0.83;;;14.00;99.90;;;;;;933351;149;27439;-76
2023/09/23 00:03:23;;;;;;;1.30;0.80;;;14.00;99.90;;;;;;933292;149;27369;-76
2023/09/23 00:05:49;;;;;;;1.70;0.83;;;14.00;99.90;;;;;;933396;149;27863;-76
2023/09/23 00:08:18;;;;;;;0.80;0.80;;;14.00;99.90;;;;;;953340;147;27396;-76
2023/09/23 00:10:42;;;;;;;1.40;0.90;;;13.90;99.90;;;;;;951280;147;27408;-76
2023/09/23 00:13:08;;;;;;;1.27;0.90;;;13.90;99.90;;;;;;952074;147;27398;-76
2023/09/23 00:15:35;;;;;;;0.70;0.70;;;13.90;99.90;;;;;;933146;149;27357;-76
2023/09/23 00:18:02;;;;;;;1.03;0.60;;;14.00;99.90;;;;;;933575;150;28415;-76
2023/09/23 00:20:28;;;;;;;0.60;0.60;;;14.00;99.90;;;;;;929773;150;27316;-76
2023/09/23 00:22:56;;;;;;;0.87;0.87;;;14.00;99.90;;;;;;932261;149;27442;-76
2023/09/23 00:25:23;;;;;;;3.80;1.00;;;14.00;99.90;;;;;;926662;150;27378;-76
2023/09/23 00:27:49;;;;;;;0.93;0.90;;;13.90;99.90;;;;;;932262;149;27965;-76
2023/09/23 00:30:14;;;;;;;1.50;1.07;;;13.90;99.90;;;;;;942950;147;27362;-76
2023/09/23 00:32:41;;;;;;;1.27;0.77;;;13.90;99.90;;;;;;934733;150;27321;-76
2023/09/23 00:35:10;;;;;;;0.83;0.83;;;13.90;99.90;;;;;;919529;147;27384;-76
2023/09/23 00:37:34;;;;;;;0.70;0.70;;;13.90;99.90;;;;;;946425;147;27407;-76
2023/09/23 00:40:01;;;;;;;1.07;1.00;;;13.80;99.90;;;;;;941953;148;27328;-76
2023/09/23 00:42:27;;;;;;;2.10;0.90;;;13.80;99.90;;;;;;941723;147;27227;-76
2023/09/23 00:44:54;;;;;;;1.07;0.70;;;13.70;99.90;;;;;;922151;149;27445;-76
2023/09/23 00:47:21;;;;;;;0.93;0.80;;;13.70;99.90;;;;;;925120;149;27381;-77
2023/09/23 00:49:47;;;;;;;0.73;0.73;;;13.70;99.90;;;;;;923062;152;27467;-77
2023/09/23 00:52:14;;;;;;;0.63;0.53;;;13.70;99.90;;;;;;924046;152;27713;-77
2023/09/23 00:54:41;;;;;;;0.50;0.50;;;13.70;99.90;;;;;;924166;151;27873;-76
2023/09/23 00:57:07;;;;;;;0.50;0.50;;;13.70;99.90;;;;;;921826;150;27439;-78
2023/09/23 00:59:35;;;;;;;3.50;0.97;;;13.70;99.90;;;;;;920814;151;27485;-77
2023/09/23 01:02:01;;;;;;;0.97;0.70;;;13.60;99.90;;;;;;919120;151;27346;-77
2023/09/23 01:04:27;;;;;;;0.60;0.60;;;13.60;99.90;;;;;;920264;152;27356;-77
2023/09/23 01:06:53;;;;;;;1.90;0.90;;;13.60;99.90;;;;;;921929;151;27432;-76
2023/09/23 01:09:21;;;;;;;0.60;0.60;;;13.60;99.90;;;;;;910992;150;27537;-77
2023/09/23 01:11:46;;;;;;;0.80;0.80;;;13.60;99.90;;;;;;941316;148;27310;-77
2023/09/23 01:14:13;;;;;;;0.80;0.80;;;13.60;99.90;;;;;;943573;148;27307;-77
2023/09/23 01:16:41;;;;;;;0.97;0.90;;;13.60;99.90;;;;;;939609;147;27246;-76
2023/09/23 01:19:06;;;;;;;1.70;1.07;;;13.60;99.90;;;;;;942785;146;27348;-77
2023/09/23 01:21:33;;;;;;;0.70;0.70;;;13.50;99.90;;;;;;945738;148;27382;-78
2023/09/23 01:23:59;;;;;;;1.53;0.93;;;13.50;99.90;;;;;;944096;148;27304;-77
2023/09/23 01:26:27;;;;;;;1.70;0.90;;;13.50;99.90;;;;;;944119;147;27387;-76
2023/09/23 01:28:53;;;;;;;1.40;0.90;;;13.50;99.90;;;;;;943314;147;27331;-74
2023/09/23 01:31:22;;;;;;;1.00;0.90;;;13.50;99.90;;;;;;941044;146;27475;-77
2023/09/23 01:33:46;;;;;;;1.20;0.80;;;13.40;99.90;;;;;;944528;147;27341;-77
2023/09/23 01:36:12;;;;;;;0.80;0.80;;;13.40;99.90;;;;;;955932;146;27328;-77
2023/09/23 01:38:41;;;;;;;1.17;0.87;;;13.40;99.90;;;;;;930204;150;27790;-76
2023/09/23 01:41:06;;;;;;;0.83;0.70;;;13.40;99.90;;;;;;947594;146;27358;-77
2023/09/23 01:43:32;;;;;;;2.37;0.90;;;13.40;99.90;;;;;;946274;146;27828;-78
2023/09/23 01:46:03;;;;;;;1.20;1.00;;;13.30;99.90;;;;;;946197;146;27338;-78
2023/09/23 01:48:29;;;;;;;1.90;0.80;;;13.30;99.90;;;;;;945320;147;27282;-76
2023/09/23 01:50:52;;;;;;;1.13;1.03;;;13.30;99.90;;;;;;943367;147;27334;-77
2023/09/23 01:53:21;;;;;;;0.87;0.60;;;13.30;99.90;;;;;;936723;150;27463;-78
2023/09/23 01:55:45;;;;;;;0.60;0.60;;;13.30;99.90;;;;;;930664;150;27334;-75
2023/09/23 01:58:14;;;;;;;0.70;0.70;;;13.30;99.90;;;;;;948057;147;27254;-75
2023/09/23 02:00:38;;;;;;;0.60;0.60;;;13.30;99.90;;;;;;951527;147;27338;-76
2023/09/23 02:03:05;;;;;;;2.73;0.97;;;13.30;99.90;;;;;;942316;149;27885;-76
2023/09/23 02:05:32;;;;;;;1.10;0.65;;;13.40;99.90;;;;;;934791;149;27371;-75
2023/09/23 02:07:58;;;;;;;0.73;0.70;;;13.50;99.90;;;;;;945169;148;27339;-76
2023/09/23 02:10:26;;;;;;;1.53;0.93;;;13.50;99.90;;;;;;946205;149;27360;-75
2023/09/23 02:12:51;;;;;;;0.80;0.60;;;13.50;99.90;;;;;;945230;149;27452;-75
2023/09/23 02:15:18;;;;;;;1.00;0.73;;;13.60;99.90;;;;;;945388;149;27258;-76
2023/09/23 02:17:44;;;;;;;3.20;0.88;;;13.60;99.90;;;;;;945598;149;27572;-75
2023/09/23 02:20:12;;;;;;;1.27;0.83;;;13.70;99.90;;;;;;945626;149;27317;-76
2023/09/23 02:22:38;;;;;;;2.67;0.83;;;13.70;99.90;;;;;;945253;150;27436;-75
2023/09/23 02:25:04;;;;;;;0.80;0.80;;;13.70;99.90;;;;;;945290;149;27441;-76
2023/09/23 02:27:31;;;;;;;0.70;0.70;;;13.80;99.90;;;;;;946329;149;27672;-75
2023/09/23 02:29:57;;;;;;;0.75;0.75;;;13.80;99.90;;;;;;946048;149;27412;-76
2023/09/23 02:32:25;;;;;;;0.57;0.57;;;13.80;99.90;;;;;;945576;149;27361;-75
2023/09/23 02:34:52;;;;;;;0.83;0.80;;;13.80;99.90;;;;;;932749;149;27460;-76
2023/09/23 02:37:19;;;;;;;0.60;0.60;;;13.80;99.90;;;;;;949026;146;27366;-76
2023/09/23 02:39:45;;;;;;;0.70;0.70;;;13.80;99.90;;;;;;935712;149;27383;-76
2023/09/23 02:42:12;;;;;;;0.70;0.70;;;13.90;99.90;;;;;;934140;150;27456;-76
2023/09/23 02:44:38;;;;;;;1.17;0.90;;;13.80;99.90;;;;;;933509;150;27379;-75
2023/09/23 02:47:05;;;;;;;1.03;0.60;;;13.80;99.90;;;;;;933920;149;27806;-76
2023/09/23 02:49:33;;;;;;;0.30;0.30;;;13.80;99.90;;;;;;950835;147;27377;-75
2023/09/23 02:51:58;;;;;;;0.50;0.50;;;13.80;99.90;;;;;;945791;147;27283;-75
2023/09/23 02:54:26;;;;;;;1.17;0.60;;;13.80;99.90;;;;;;932561;149;27350;-75
2023/09/23 02:56:51;;;;;;;0.70;0.70;;;13.70;99.90;;;;;;934762;149;27376;-75
2023/09/23 02:59:26;;;;;;;0.60;0.60;;;13.70;99.90;;;;;;933715;149;27369;-75
2023/09/23 03:01:51;;;;;;;0.57;0.57;;;13.60;99.90;;;;;;934919;149;27377;-76
2023/09/23 03:04:17;;;;;;;0.70;0.70;;;13.60;99.90;;;;;;941560;149;27388;-76
2023/09/23 03:07:01;;;;;;;1.97;0.50;;;13.50;99.90;;;;;;943483;149;27390;-75
2023/09/23 03:09:23;;;;;;;0.50;0.50;;;13.50;99.90;;;;;;949168;147;27370;-76
2023/09/23 03:11:53;;;;;;;0.90;0.83;;;13.40;99.90;;;;;;951924;147;27438;-76
2023/09/23 03:14:18;;;;;;;0.97;0.50;;;13.30;99.90;;;;;;945506;147;27420;-76
2023/09/23 03:16:44;;;;;;;0.83;0.83;;;13.20;99.90;;;;;;932759;149;27309;-76
2023/09/23 03:19:10;;;;;;;0.70;0.70;;;13.20;99.90;;;;;;932451;149;27354;-76
2023/09/23 03:21:37;;;;;;;0.70;0.70;;;13.10;99.90;;;;;;932460;150;27334;-76
2023/09/23 03:24:04;;;;;;;0.73;0.73;;;13.00;99.90;;;;;;926691;150;27364;-76
2023/09/23 03:26:31;;;;;;;0.80;0.80;;;13.00;99.90;;;;;;943583;147;27363;-76
2023/09/23 03:28:57;;;;;;;0.77;0.77;;;12.90;99.90;;;;;;933941;149;27442;-76
2023/09/23 03:31:23;;;;;;;1.03;0.80;;;12.80;99.90;;;;;;943970;147;27308;-76
2023/09/23 03:33:50;;;;;;;1.10;0.80;;;12.70;99.90;;;;;;940952;148;27309;-76
2023/09/23 03:36:16;;;;;;;1.77;0.80;;;12.70;99.90;;;;;;930954;149;27470;-76
2023/09/23 03:38:43;;;;;;;0.83;0.83;;;12.60;99.90;;;;;;942404;149;27371;-76
2023/09/23 03:41:11;;;;;;;1.03;1.00;;;12.50;99.90;;;;;;930623;152;27353;-76
2023/09/23 03:43:37;;;;;;;1.97;0.70;;;12.50;99.90;;;;;;942353;150;27447;-76
2023/09/23 03:46:03;;;;;;;1.07;0.97;;;12.50;99.90;;;;;;951340;147;27422;-76
2023/09/23 03:48:29;;;;;;;0.70;0.70;;;12.40;99.90;;;;;;949961;147;27347;-76
2023/09/23 03:50:56;;;;;;;0.87;0.87;;;12.30;99.90;;;;;;950653;147;27358;-75
2023/09/23 03:53:23;;;;;;;4.23;0.97;;;12.30;99.90;;;;;;938087;149;27360;-76
2023/09/23 03:55:49;;;;;;;0.70;0.70;;;12.30;99.90;;;;;;935540;150;27426;-76
2023/09/23 03:58:17;;;;;;;0.70;0.70;;;12.30;99.90;;;;;;946370;147;28196;-76
2023/09/23 04:00:43;;;;;;;4.87;0.93;;;12.20;99.90;;;;;;945726;147;27438;-76
2023/09/23 04:03:09;;;;;;;1.23;1.00;;;12.20;99.90;;;;;;934209;149;27881;-76
2023/09/23 04:05:35;;;;;;;1.90;1.00;;;12.10;99.90;;;;;;934293;149;27414;-76
2023/09/23 04:08:02;;;;;;;1.03;1.03;;;12.10;99.90;;;;;;932958;150;27390;-76
2023/09/23 04:10:29;;;;;;;2.43;1.00;;;12.10;99.90;;;;;;946218;147;27459;-75
2023/09/23 04:12:55;;;;;;;0.90;0.80;;;12.10;99.90;;;;;;934203;149;27477;-76
2023/09/23 04:15:25;;;;;;;0.97;0.90;;;12.00;99.90;;;;;;936476;149;27404;-76
2023/09/23 04:17:52;;;;;;;0.80;0.80;;;12.00;99.90;;;;;;934908;149;27454;-77
2023/09/23 04:20:18;;;;;;;0.87;0.87;;;12.00;99.90;;;;;;950750;147;27353;-76
2023/09/23 04:22:48;;;;;;;0.70;0.70;;;11.90;99.90;;;;;;932454;148;27425;-76
2023/09/23 04:25:13;;;;;;;1.00;0.90;;;11.90;99.90;;;;;;949652;147;27269;-76
2023/09/23 04:27:37;;;;;;;2.70;1.20;;;11.90;99.90;;;;;;933236;149;27350;-76
2023/09/23 04:30:07;;;;;;;1.60;1.17;;;11.80;99.90;;;;;;944823;147;27455;-76
2023/09/23 04:32:31;;;;;;;1.07;1.07;;;11.80;99.90;;;;;;934558;150;27325;-76
2023/09/23 04:34:57;;;;;;;0.70;0.70;;;11.80;99.90;;;;;;935691;149;27354;-76
2023/09/23 04:37:24;;;;;;;1.27;1.10;;;11.70;99.90;;;;;;933966;150;27455;-76
2023/09/23 04:39:50;;;;;;;1.83;1.10;;;11.70;99.90;;;;;;945047;147;27479;-76
2023/09/23 04:42:17;;;;;;;1.60;1.50;;;11.70;99.90;;;;;;942869;148;28362;-76
2023/09/23 04:44:44;;;;;;;2.20;1.90;;;11.70;99.90;;;;;;950092;147;27328;-76
2023/09/23 04:47:12;;;;;;;2.03;1.83;;;11.70;99.90;;;;;;951671;147;27426;-76
2023/09/23 04:49:37;;;;;;;2.13;1.50;;;11.70;99.90;;;;;;939259;149;27308;-76
2023/09/23 04:52:04;;;;;;;1.13;1.13;;;11.60;99.90;;;;;;933848;149;27502;-76
2023/09/23 04:54:30;;;;;;;2.03;1.37;;;11.60;99.90;;;;;;932310;149;27350;-76
2023/09/23 04:56:56;;;;;;;1.30;1.20;;;11.60;99.90;;;;;;938746;150;27315;-76
2023/09/23 04:59:24;;;;;;;1.00;1.00;;;11.60;99.90;;;;;;931806;149;27351;-76
2023/09/23 05:01:50;;;;;;;1.40;1.10;;;11.60;99.90;;;;;;928695;150;27361;-76
2023/09/23 05:04:16;;;;;;;1.00;1.00;;;11.60;99.90;;;;;;943104;149;27443;-76
2023/09/23 05:06:43;;;;;;;1.30;1.30;;;11.60;99.90;;;;;;951166;147;27299;-77
2023/09/23 05:09:11;;;;;;;1.40;1.30;;;11.60;99.90;;;;;;933188;149;27451;-76
2023/09/23 05:11:36;;;;;;;4.00;1.30;;;11.60;99.90;;;;;;932961;149;27354;-76
2023/09/23 05:14:05;;;;;;;2.13;1.60;;;11.50;99.90;;;;;;949693;147;27921;-76
2023/09/23 05:16:29;;;;;;;1.00;0.90;;;11.50;99.90;;;;;;925978;150;27327;-76
2023/09/23 05:18:56;;;;;;;1.10;1.00;;;11.50;99.90;;;;;;948827;147;27281;-76
2023/09/23 05:21:22;;;;;;;1.30;1.20;;;11.50;99.90;;;;;;931897;150;27368;-76
2023/09/23 05:23:50;;;;;;;1.90;1.30;;;11.40;99.90;;;;;;950353;147;27747;-76
2023/09/23 05:26:16;;;;;;;3.13;1.30;;;11.40;99.90;;;;;;931091;150;27264;-77
2023/09/23 05:28:46;;;;;;;1.37;1.07;;;11.40;99.90;;;;;;938047;150;27256;-77
2023/09/23 05:31:13;;;;;;;2.53;1.30;;;11.40;99.90;;;;;;943577;147;27343;-77
2023/09/23 05:33:38;;;;;;;1.23;1.23;;;11.40;99.90;;;;;;941327;147;27741;-78
2023/09/23 05:36:06;;;;;;;2.90;1.40;;;11.50;99.90;;;;;;931484;149;27344;-78
2023/09/23 05:38:36;;;;;;;1.20;1.10;;;11.50;99.90;;;;;;932548;150;27415;-76
2023/09/23 05:40:58;;;;;;;1.03;1.03;;;11.60;99.90;;;;;;941844;149;27360;-77
2023/09/23 05:43:25;;;;;;;2.77;1.53;;;11.70;99.90;;;;;;949470;147;27341;-77
2023/09/23 05:45:51;;;;;;;1.20;1.07;;;11.80;99.90;;;;;;933424;149;28651;-77
2023/09/23 05:48:18;;;;;;;1.40;1.17;;;12.00;99.90;;;;;;926349;150;27335;-77
2023/09/23 05:50:44;;;;;;;2.80;1.13;;;12.20;99.90;;;;;;936137;149;27705;-76
2023/09/23 05:53:11;;;;;;;1.63;1.53;;;12.40;99.90;;;;;;933003;149;27458;-77
2023/09/23 05:55:38;;;;;;;2.90;1.20;;;12.60;99.90;;;;;;933984;149;27430;-77
2023/09/23 05:58:04;;;;;;;3.93;1.80;;;12.90;99.90;;;;;;948666;148;27340;-77
2023/09/23 06:00:31;;;;;;;1.77;1.37;;;13.20;99.90;;;;;;949233;148;27416;-76
2023/09/23 06:02:58;;;;;;;1.00;0.90;;;13.50;99.90;;;;;;949936;148;27367;-76
2023/09/23 06:05:24;;;;;;;1.02;0.88;;;14.00;99.90;;;;;;949770;148;27352;-77
2023/09/23 06:07:52;;;;;;;1.30;1.20;;;14.40;99.90;;;;;;949084;148;27356;-77
2023/09/23 06:10:18;;;;;;;1.30;1.20;;;15.00;99.90;;;;;;950563;148;27446;-77
2023/09/23 06:12:44;;;;;;;0.90;0.90;;;15.50;99.90;;;;;;948890;148;27293;-77
2023/09/23 06:15:10;;;;;;;1.20;1.10;;;16.20;99.90;;;;;;949350;148;27383;-77
2023/09/23 06:17:37;;;;;;;1.85;1.35;;;16.70;99.90;;;;;;949721;148;28532;-79
2023/09/23 06:20:04;;;;;;;1.02;1.02;;;17.30;99.90;;;;;;950064;148;27361;-78
2023/09/23 06:22:30;;;;;;;1.80;1.12;;;17.90;99.90;;;;;;932820;149;27267;-78
2023/09/23 06:24:57;;;;;;;0.95;0.85;;;18.50;99.90;;;;;;932025;150;27347;-76
2023/09/23 06:27:23;;;;;;;1.37;1.27;;;19.10;99.90;;;;;;935167;149;27467;-78
2023/09/23 06:29:50;;;;;;;1.00;0.70;;;19.60;99.90;;;;;;947947;148;27398;-78
2023/09/23 06:32:17;;;;;;;1.12;0.80;;;20.10;99.90;;;;;;947854;148;27336;-76
2023/09/23 06:34:44;;;;;;;1.00;1.00;;;20.50;99.90;;;;;;948788;148;27767;-76
2023/09/23 06:37:10;;;;;;;3.65;1.42;;;20.90;98.60;;;;;;949754;148;27442;-75
2023/09/23 06:39:36;;;;;;;0.80;0.80;;;21.20;97.00;;;;;;948798;148;27739;-74
2023/09/23 06:42:03;;;;;;;1.25;1.10;;;21.50;96.10;;;;;;941061;151;27294;-75
2023/09/23 06:44:30;;;;;;;1.37;1.20;;;21.80;94.90;;;;;;941665;149;27323;-77
2023/09/23 06:46:56;;;;;;;1.45;1.25;;;22.10;92.90;;;;;;941572;149;27458;-75
2023/09/23 06:49:23;;;;;;;1.20;1.00;;;22.30;90.80;;;;;;942206;149;27344;-75
2023/09/23 06:51:49;;;;;;;1.05;0.98;;;22.40;89.10;;;;;;943072;149;27411;-74
2023/09/23 06:54:16;;;;;;;0.80;0.80;;;22.50;87.70;;;;;;949930;148;27348;-75
2023/09/23 06:56:42;;;;;;;0.93;0.85;;;22.60;87.00;;;;;;943821;148;27351;-77
2023/09/23 06:59:09;;;;;;;0.90;0.90;;;22.70;85.50;;;;;;946763;146;27350;-75
2023/09/23 07:01:36;;;;;;;0.85;0.85;;;22.80;83.20;;;;;;933528;149;27423;-75
2023/09/23 07:04:02;;;;;;;2.30;0.78;;;22.80;82.80;;;;;;933560;150;27346;-74
2023/09/23 07:06:29;;;;;;;1.00;0.68;;;23.00;83.30;;;;;;933570;149;27347;-76
2023/09/23 07:08:55;;;;;;;1.12;0.82;;;23.20;83.50;;;;;;932182;149;27511;-76
2023/09/23 07:11:23;;;;;;;2.45;1.05;;;23.40;82.80;;;;;;933623;149;27298;-75
2023/09/23 07:13:49;;;;;;;1.65;0.90;;;23.60;82.20;;;;;;947342;147;27226;-75
2023/09/23 07:16:15;;;;;;;3.02;1.12;;;23.90;81.00;;;;;;933908;149;27330;-75
2023/09/23 07:18:42;;;;;;;3.25;0.82;;;24.20;80.40;;;;;;932905;149;27396;-74
2023/09/23 07:21:08;;;;;;;1.17;0.88;;;24.50;80.70;;;;;;952776;147;27363;-74
2023/09/23 07:23:35;;;;;;;1.15;1.00;;;24.90;80.10;;;;;;951317;147;27321;-74
2023/09/23 07:26:02;;;;;;;0.85;0.82;;;25.40;79.30;;;;;;950407;147;27323;-74
2023/09/23 07:28:28;;;;;;;1.35;1.07;;;25.80;77.10;;;;;;931066;150;27455;-77
2023/09/23 07:30:56;;;;;;;0.90;0.85;;;26.20;74.90;;;;;;949933;147;27421;-76
2023/09/23 07:33:21;;;;;;;1.70;0.80;;;26.50;72.40;;;;;;928019;150;27358;-74
2023/09/23 07:35:48;;;;;;;1.15;0.80;;;26.60;70.00;;;;;;927242;150;27332;-74
2023/09/23 07:38:14;;;;;;;3.47;1.02;;;26.60;68.40;;;;;;932218;150;27339;-76
2023/09/23 07:40:41;;;;;;;1.22;0.78;;;26.60;67.60;;;;;;956404;146;27468;-73
2023/09/23 07:43:08;;;;;;;1.22;0.90;;;26.60;67.10;;;;;;943271;149;27357;-76
2023/09/23 07:45:40;;;;;;;0.80;0.80;;;26.60;66.80;;;;;;947772;149;27470;-73
2023/09/23 07:48:07;;;;;;;0.70;0.70;;;26.60;66.50;;;;;;944490;148;27375;-75
2023/09/23 07:50:33;;;;;;;0.88;0.85;;;26.70;66.60;;;;;;942293;149;27379;-75
2023/09/23 07:52:59;;;;;;;0.93;0.65;;;26.90;67.20;;;;;;941075;149;27347;-76
2023/09/23 07:55:26;;;;;;;2.15;0.78;;;27.20;67.40;;;;;;941873;149;27337;-76
2023/09/23 07:57:53;;;;;;;1.15;0.88;;;27.40;67.10;;;;;;941888;149;27441;-76
2023/09/23 08:00:19;;;;;;;2.25;1.30;;;27.90;66.90;;;;;;935159;149;27432;-76
2023/09/23 08:02:46;;;;;;;0.80;0.80;;;28.30;66.90;;;;;;942614;147;27375;-76
2023/09/23 08:05:12;;;;;;;1.40;1.00;;;28.80;66.10;;;;;;929774;150;27425;-76
2023/09/23 08:07:39;;;;;;;1.10;1.00;;;29.30;64.80;;;;;;940090;146;27429;-76
2023/09/23 08:10:06;;;;;;;1.22;1.00;;;29.60;63.20;;;;;;932842;149;27479;-75
2023/09/23 08:12:35;;;;;;;1.80;1.10;;;29.90;60.80;;;;;;931063;149;27339;-75
2023/09/23 08:15:02;;;;;;;1.12;1.02;;;30.10;60.20;;;;;;940608;149;27291;-76
2023/09/23 08:17:28;;;;;;;1.32;1.10;;;30.30;59.80;;;;;;942226;149;28086;-76
2023/09/23 08:19:55;;;;;;;1.37;0.98;;;30.50;59.40;;;;;;933311;149;27435;-75
2023/09/23 08:22:21;;;;;;;0.65;0.65;;;30.60;59.10;;;;;;933025;149;27339;-76
2023/09/23 08:24:48;;;;;;;2.00;0.95;;;30.80;59.00;;;;;;941995;149;27335;-76
2023/09/23 08:27:15;;;;;;;0.75;0.75;;;31.10;58.30;;;;;;929642;149;27323;-76
2023/09/23 08:29:41;;;;;;;1.45;0.90;;;31.30;57.70;;;;;;925675;150;27365;-76
2023/09/23 08:32:08;;;;;;;1.72;1.00;;;31.60;57.50;;;;;;926283;151;27370;-76
2023/09/23 08:34:34;;;;;;;1.15;1.00;;;31.70;57.00;;;;;;932512;149;27344;-76
2023/09/23 08:37:01;;;;;;;1.30;0.95;;;32.00;56.70;;;;;;925227;150;27340;-75
2023/09/23 08:39:28;;;;;;;1.25;0.75;;;32.10;56.30;;;;;;950280;147;27747;-76
2023/09/23 08:41:54;;;;;;;1.40;0.80;;;32.30;55.20;;;;;;938588;151;27402;-75
2023/09/23 08:44:22;;;;;;;0.98;0.80;;;32.30;54.00;;;;;;932727;149;27436;-76
2023/09/23 08:46:52;;;;;;;1.47;1.00;;;32.00;53.00;;;;;;948285;149;26230;-75
2023/09/23 08:49:20;;;;;;;2.22;0.90;;;31.70;52.50;;;;;;932275;152;27468;-76
2023/09/23 08:51:46;;;;;;;1.32;0.72;;;31.40;53.30;;;;;;945439;149;26391;-76
2023/09/23 08:54:12;;;;;;;0.70;0.60;;;31.10;53.60;;;;;;946410;148;27251;-76
2023/09/23 08:56:39;;;;;;;1.15;1.05;;;30.90;54.10;;;;;;945534;149;27819;-77
2023/09/23 08:59:05;;;;;;;1.15;0.93;;;30.80;54.10;;;;;;931414;150;27366;-76
2023/09/23 09:01:32;;;;;;;1.20;0.85;;;30.70;53.70;;;;;;932764;152;27347;-77
2023/09/23 09:03:59;;;;;;;1.00;0.70;;;30.60;53.50;;;;;;931957;149;26293;-78
2023/09/23 09:06:29;;;;;;;0.62;0.62;;;30.40;53.00;;;;;;931948;152;27715;-77
2023/09/23 09:08:52;;;;;;;1.27;1.02;;;30.20;52.70;;;;;;932656;151;27348;-77
2023/09/23 09:11:21;;;;;;;1.95;0.95;;;30.00;52.90;;;;;;931948;151;27476;-77
2023/09/23 09:13:49;;;;;;;1.52;0.90;;;29.70;52.80;;;;;;934379;151;27349;-77
2023/09/23 09:16:15;;;;;;;0.80;0.80;;;29.40;52.60;;;;;;924843;151;27428;-76
2023/09/23 09:18:41;;;;;;;1.12;1.02;;;29.10;52.70;;;;;;930909;150;27372;-77
2023/09/23 09:21:08;;;;;;;2.15;0.93;;;28.90;53.50;;;;;;921246;152;27469;-78
2023/09/23 09:23:36;;;;;;;1.05;0.85;;;28.80;53.80;;;;;;929671;151;27424;-77
2023/09/23 09:26:01;;;;;;;1.95;0.88;;;28.60;53.90;;;;;;948080;148;27342;-78
2023/09/23 09:28:27;;;;;;;2.37;1.07;;;28.50;53.70;;;;;;944691;149;27417;-76
2023/09/23 09:30:57;;;;;;;1.87;0.70;;;28.30;53.40;;;;;;937800;151;27378;-76
2023/09/23 09:33:26;;;;;;;1.57;1.42;;;28.10;53.10;;;;;;937012;150;27385;-78
2023/09/23 09:35:57;;;;;;;0.82;0.80;;;27.80;52.70;;;;;;936628;150;27389;-77
2023/09/23 09:38:21;;;;;;;1.25;1.10;;;27.60;53.10;;;;;;928990;152;27463;-78
2023/09/23 09:40:48;;;;;;;1.42;0.80;;;27.30;54.00;;;;;;931242;152;27361;-78
2023/09/23 09:43:15;;;;;;;1.35;1.25;;;27.10;54.60;;;;;;945567;148;27330;-77
2023/09/23 09:45:42;;;;;;;1.00;0.93;;;27.10;55.20;;;;;;934167;151;27323;-78
2023/09/23 09:48:08;;;;;;;2.55;1.70;;;27.10;55.40;;;;;;927582;151;27477;-78
2023/09/23 09:50:34;;;;;;;1.55;1.42;;;27.20;55.40;;;;;;943139;149;27334;-78
2023/09/23 09:53:01;;;;;;;2.67;1.20;;;27.30;55.00;;;;;;945059;149;27778;-78
2023/09/23 09:55:27;;;;;;;1.20;0.95;;;27.30;55.00;;;;;;918511;152;27434;-77
2023/09/23 09:57:54;;;;;;;3.15;1.20;;;27.40;55.10;;;;;;934531;151;27436;-77
2023/09/23 10:02:50;;;;;;;1.07;1.00;;;27.50;54.90;;;;;;940838;149;27347;-79
2023/09/23 10:05:20;;;;;;;1.32;0.88;;;27.70;54.90;;;;;;929744;151;27390;-76
2023/09/23 10:07:52;;;;;;;1.40;0.90;;;27.70;54.60;;;;;;940013;150;27795;-76
2023/09/23 10:10:18;;;;;;;1.10;1.00;;;27.70;54.20;;;;;;928778;151;27485;-76
2023/09/23 10:12:51;;;;;;;1.50;1.05;;;27.70;54.00;;;;;;930136;151;27276;-76
2023/09/23 10:15:17;;;;;;;1.15;0.85;;;27.70;54.40;;;;;;929790;151;27367;-75
2023/09/23 10:17:43;;;;;;;1.42;1.00;;;27.60;53.70;;;;;;923314;153;27353;-76
2023/09/23 10:20:13;;;;;;;1.15;0.80;;;27.50;53.60;;;;;;946463;149;27337;-76
2023/09/23 10:22:37;;;;;;;1.42;0.78;;;27.40;53.10;;;;;;939657;149;27236;-76
2023/09/23 10:25:11;;;;;;;2.05;1.05;;;27.30;53.00;;;;;;941628;150;27341;-75
2023/09/23 10:27:33;;;;;;;1.32;1.00;;;27.10;53.20;;;;;;927483;151;27477;-75
2023/09/23 10:30:04;;;;;;;1.70;1.25;;;26.90;53.30;;;;;;918876;152;27385;-76
2023/09/23 10:32:26;;;;;;;1.12;0.90;;;26.70;53.50;;;;;;943278;149;27444;-76
2023/09/23 10:34:55;;;;;;;1.20;1.10;;;26.50;53.50;;;;;;925884;151;27372;-75
2023/09/23 10:37:34;;;;;;;2.12;0.85;;;26.30;53.10;;;;;;945662;149;27478;-75
2023/09/23 10:40:17;;;;;;;1.17;0.68;;;26.10;53.00;;;;;;944933;149;27381;-76
2023/09/23 10:42:42;;;;;;;0.68;0.68;;;25.70;52.80;;;;;;947930;148;27434;-75
2023/09/23 10:45:09;;;;;;;1.12;1.02;;;25.40;53.00;;;;;;931511;152;27459;-75
2023/09/23 10:47:36;;;;;;;0.80;0.80;;;25.00;53.30;;;;;;929044;151;27367;-75
2023/09/23 10:50:04;;;;;;;1.00;0.90;;;24.70;53.80;;;;;;943699;149;27389;-75
2023/09/23 10:52:28;;;;;;;2.67;0.90;;;24.40;54.30;;;;;;940476;150;27326;-76
2023/09/23 10:54:55;;;;;;;1.20;1.10;;;24.20;54.60;;;;;;942224;149;27450;-76
2023/09/23 10:57:23;;;;;;;2.05;1.00;;;24.00;55.10;;;;;;931205;152;27773;-75
2023/09/23 10:59:48;;;;;;;0.98;0.75;;;23.90;55.20;;;;;;929657;151;27359;-75
2023/09/23 11:02:15;;;;;;;2.33;0.98;;;23.80;55.20;;;;;;945026;149;27311;-76
2023/09/23 11:04:44;;;;;;;0.80;0.80;;;23.60;55.20;;;;;;945243;150;27369;-75
2023/09/23 11:07:11;;;;;;;3.55;1.00;;;23.50;55.30;;;;;;942379;150;27753;-76
2023/09/23 11:09:38;;;;;;;2.08;1.15;;;23.40;55.50;;;;;;946426;148;27297;-75
2023/09/23 11:12:09;;;;;;;2.20;1.12;;;23.30;55.70;;;;;;938431;151;27393;-75
2023/09/23 11:14:36;;;;;;;1.22;1.00;;;23.20;56.00;;;;;;940357;150;27805;-76
2023/09/23 11:17:03;;;;;;;1.22;0.80;;;23.10;56.20;;;;;;938824;150;27446;-80
2023/09/23 11:19:29;;;;;;;2.08;1.20;;;23.00;56.30;;;;;;938916;149;27330;-79
2023/09/23 11:21:56;;;;;;;3.17;1.30;;;23.00;56.40;;;;;;941784;149;28040;-76
2023/09/23 11:24:22;;;;;;;1.52;0.80;;;22.90;56.50;;;;;;934389;151;27374;-78
2023/09/23 11:26:49;;;;;;;1.70;0.90;;;22.90;56.50;;;;;;937618;149;28293;-79
2023/09/23 11:29:15;;;;;;;1.05;0.90;;;22.90;56.60;;;;;;940505;149;27473;-78
2023/09/23 11:31:42;;;;;;;1.02;0.60;;;22.80;56.60;;;;;;941651;149;27444;-76
2023/09/23 11:34:09;;;;;;;1.20;0.90;;;22.80;56.70;;;;;;940693;150;27448;-78
2023/09/23 11:36:35;;;;;;;1.25;1.05;;;22.80;56.80;;;;;;940570;149;27291;-79
2023/09/23 11:39:02;;;;;;;0.55;0.55;;;22.70;56.70;;;;;;941048;149;27327;-77
2023/09/23 11:41:28;;;;;;;1.10;0.98;;;22.70;56.70;;;;;;942295;149;27422;-77
2023/09/23 11:43:55;;;;;;;1.05;1.00;;;22.70;56.90;;;;;;942058;149;27397;-78
2023/09/23 11:46:24;;;;;;;0.70;0.70;;;22.60;56.90;;;;;;934397;149;27387;-78
2023/09/23 11:51:13;;;;;;;1.92;1.10;;;22.60;56.90;;;;;;967394;145;37485;-77
2023/09/23 11:53:41;;;;;;;2.15;0.90;;;22.60;56.90;;;;;;959230;148;27315;-77
2023/09/23 11:56:06;;;;;;;1.35;0.82;;;22.60;56.90;;;;;;958951;148;27347;-77
2023/09/23 11:58:33;;;;;;;2.22;1.02;;;22.60;56.90;;;;;;959853;147;27327;-75
2023/09/23 12:01:02;;;;;;;1.50;1.10;;;22.60;56.80;;;;;;958657;146;27448;-78
2023/09/23 12:03:26;;;;;;;1.50;0.70;;;22.60;57.00;;;;;;957723;146;27464;-75
2023/09/23 12:05:53;;;;;;;1.52;0.90;;;22.60;57.00;;;;;;959367;148;27895;-77
2023/09/23 12:08:19;;;;;;;1.65;0.98;;;22.60;56.80;;;;;;959250;146;27331;-75
2023/09/23 12:10:46;;;;;;;1.25;0.93;;;22.60;56.70;;;;;;958820;146;27253;-76
2023/09/23 12:13:13;;;;;;;1.10;1.00;;;22.60;56.70;;;;;;958648;148;27335;-76
2023/09/23 12:15:40;;;;;;;1.20;1.10;;;22.60;56.80;;;;;;958835;146;27226;-77
2023/09/23 12:18:06;;;;;;;0.95;0.85;;;22.60;56.90;;;;;;957987;146;27231;-77
2023/09/23 12:20:32;;;;;;;2.70;1.00;;;22.60;57.00;;;;;;958592;146;27364;-76
2023/09/23 12:23:00;;;;;;;0.85;0.80;;;22.70;56.90;;;;;;958490;146;27273;-76
2023/09/23 12:25:25;;;;;;;1.40;0.78;;;22.70;56.90;;;;;;958947;147;27888;-77
2023/09/23 12:27:52;;;;;;;1.82;1.00;;;22.70;56.60;;;;;;958772;147;27171;-72
2023/09/23 12:30:19;;;;;;;1.32;0.90;;;22.70;56.50;;;;;;958868;147;27611;-76
2023/09/23 12:32:45;;;;;;;1.60;1.00;;;22.70;56.40;;;;;;958930;146;27298;-72
2023/09/23 12:35:12;;;;;;;1.37;1.07;;;22.70;56.40;;;;;;958176;147;27149;-75
2023/09/23 12:37:38;;;;;;;1.35;1.22;;;22.70;56.50;;;;;;959388;148;27219;-72
2023/09/23 12:40:07;;;;;;;1.92;1.20;;;22.60;56.60;;;;;;959104;146;27693;-74
2023/09/23 12:42:31;;;;;;;0.90;0.90;;;22.60;56.60;;;;;;959335;146;27334;-73
2023/09/23 12:44:58;;;;;;;1.85;1.22;;;22.60;56.70;;;;;;959776;149;27361;-72
2023/09/23 12:47:44;;;;;;;2.25;1.00;;;22.50;56.50;;;;;;959061;146;27198;-74
2023/09/23 12:50:12;;;;;;;1.32;1.22;;;22.50;56.50;;;;;;929685;150;27423;-73